createdAt,value
2022-08-24T00:00:48.543Z,22.50
2022-08-24T00:01:50.631Z,22.47
2022-08-24T00:02:53.063Z,22.47
2022-08-24T00:03:57.788Z,22.48
2022-08-24T00:05:01.843Z,22.46
2022-08-24T00:06:06.397Z,22.42
2022-08-24T00:07:15.897Z,22.44
2022-08-24T00:08:29.496Z,22.37
2022-08-24T00:09:35.029Z,22.35
2022-08-24T00:10:37.283Z,22.35
2022-08-24T00:11:39.266Z,22.27
2022-08-24T00:12:41.495Z,22.24
2022-08-24T00:13:44.706Z,22.15
2022-08-24T00:14:46.766Z,22.16
2022-08-24T00:15:52.141Z,22.26
2022-08-24T00:16:54.949Z,22.18
2022-08-24T00:17:57.311Z,22.21
2022-08-24T00:19:00.797Z,22.21
2022-08-24T00:20:03.478Z,22.21
2022-08-24T00:21:06.549Z,22.21
2022-08-24T00:22:10.207Z,22.13
2022-08-24T00:23:12.256Z,22.11
2022-08-24T00:24:14.882Z,22.06
2022-08-24T00:25:17.630Z,22.08
2022-08-24T00:26:29.266Z,22.06
2022-08-24T00:27:31.481Z,22.02
2022-08-24T00:28:34.419Z,22.00
2022-08-24T00:29:36.523Z,22.05
2022-08-24T00:30:38.884Z,22.07
2022-08-24T00:31:41.089Z,22.03
2022-08-24T00:32:45.453Z,22.09
2022-08-24T00:33:48.251Z,22.08
2022-08-24T00:34:58.316Z,22.03
2022-08-24T00:36:01.527Z,22.02
2022-08-24T00:37:04.552Z,22.02
2022-08-24T00:38:07.248Z,22.00
2022-08-24T00:39:09.541Z,21.99
2022-08-24T00:40:19.466Z,21.98
2022-08-24T00:41:22.677Z,21.96
2022-08-24T00:42:25.386Z,21.91
2022-08-24T00:43:28.959Z,21.92
2022-08-24T00:44:31.273Z,21.90
2022-08-24T00:45:48.801Z,21.92
2022-08-24T00:46:59.878Z,21.92
2022-08-24T00:48:12.152Z,21.96
2022-08-24T00:49:20.616Z,21.89
2022-08-24T00:50:27.364Z,21.83
2022-08-24T00:51:36.309Z,21.84
2022-08-24T00:52:46.696Z,21.85
2022-08-24T00:53:53.680Z,21.75
2022-08-24T00:55:00.844Z,21.76
2022-08-24T00:56:09.300Z,21.73
2022-08-24T00:57:13.811Z,21.78
2022-08-24T00:58:31.899Z,21.70
2022-08-24T00:59:39.260Z,21.71
2022-08-24T01:00:45.522Z,21.65
2022-08-24T01:01:52.229Z,21.68
2022-08-24T01:02:59.730Z,21.65
2022-08-24T01:04:03.372Z,21.64
2022-08-24T01:05:08.818Z,21.64
2022-08-24T01:06:12.692Z,21.68
2022-08-24T01:07:15.325Z,21.67
2022-08-24T01:08:17.530Z,21.66
2022-08-24T01:09:19.775Z,21.65
2022-08-24T01:10:26.300Z,21.63
2022-08-24T01:11:33.756Z,21.59
2022-08-24T01:12:39.577Z,21.63
2022-08-24T01:13:46.070Z,21.62
2022-08-24T01:14:48.700Z,21.63
2022-08-24T01:15:58.158Z,21.59
2022-08-24T01:17:18.945Z,21.59
2022-08-24T01:18:42.571Z,21.58
2022-08-24T01:19:49.239Z,21.59
2022-08-24T01:21:06.199Z,21.52
2022-08-24T01:22:25.964Z,21.52
2022-08-24T01:23:49.471Z,21.49
2022-08-24T01:24:54.055Z,21.52
2022-08-24T01:25:56.529Z,21.55
2022-08-24T01:27:02.921Z,21.52
2022-08-24T01:28:10.558Z,21.51
2022-08-24T01:29:29.235Z,21.44
2022-08-24T01:30:36.175Z,21.55
2022-08-24T01:31:39.611Z,21.55
2022-08-24T01:32:52.671Z,21.45
2022-08-24T01:33:55.881Z,21.45
2022-08-24T01:34:58.661Z,21.46
2022-08-24T01:36:08.819Z,21.43
2022-08-24T01:37:11.747Z,21.44
2022-08-24T01:38:16.857Z,21.40
2022-08-24T01:39:54.379Z,21.39
2022-08-24T01:41:01.991Z,21.37
2022-08-24T01:42:05.145Z,21.35
2022-08-24T01:43:11.156Z,21.35
2022-08-24T01:44:14.193Z,21.33
2022-08-24T01:45:16.941Z,21.33
2022-08-24T01:46:19.034Z,21.33
2022-08-24T01:47:21.156Z,21.35
2022-08-24T01:48:23.639Z,21.34
2022-08-24T01:49:31.419Z,21.34
2022-08-24T01:50:35.114Z,21.32
2022-08-24T01:51:37.239Z,21.29
2022-08-24T01:53:03.796Z,21.28
2022-08-24T01:54:06.065Z,21.27
2022-08-24T01:55:10.691Z,21.27
2022-08-24T01:56:13.268Z,21.19
2022-08-24T01:57:17.078Z,21.19
2022-08-24T01:58:20.633Z,21.19
2022-08-24T01:59:23.089Z,21.19
2022-08-24T02:00:26.236Z,21.19
2022-08-24T02:01:30.812Z,21.18
2022-08-24T02:02:33.283Z,21.18
2022-08-24T02:03:35.347Z,21.16
2022-08-24T02:04:37.864Z,21.14
2022-08-24T02:05:41.353Z,21.12
2022-08-24T02:06:46.398Z,21.13
2022-08-24T02:07:51.039Z,21.13
2022-08-24T02:08:53.257Z,21.09
2022-08-24T02:09:55.365Z,21.15
2022-08-24T02:10:57.465Z,21.15
2022-08-24T02:12:00.537Z,21.11
2022-08-24T02:13:03.191Z,21.09
2022-08-24T02:14:06.156Z,21.07
2022-08-24T02:15:09.637Z,21.10
2022-08-24T02:16:12.379Z,21.10
2022-08-24T02:17:14.505Z,21.09
2022-08-24T02:18:16.583Z,21.06
2022-08-24T02:19:19.358Z,21.01
2022-08-24T02:20:21.983Z,21.02
2022-08-24T02:21:25.809Z,21.01
2022-08-24T02:22:28.164Z,20.99
2022-08-24T02:23:31.455Z,21.02
2022-08-24T02:24:35.753Z,20.96
2022-08-24T02:25:38.289Z,21.00
2022-08-24T02:26:40.890Z,20.96
2022-08-24T02:27:45.909Z,20.98
2022-08-24T02:28:48.902Z,20.95
2022-08-24T02:29:50.939Z,20.96
2022-08-24T02:30:53.781Z,20.95
2022-08-24T02:31:57.868Z,20.96
2022-08-24T02:33:00.485Z,20.96
2022-08-24T02:34:03.128Z,20.97
2022-08-24T02:35:06.067Z,20.92
2022-08-24T02:36:25.842Z,20.95
2022-08-24T02:37:31.691Z,20.94
2022-08-24T02:38:34.518Z,20.97
2022-08-24T02:39:44.176Z,20.98
2022-08-24T02:40:50.325Z,21.00
2022-08-24T02:41:53.071Z,20.99
2022-08-24T02:42:55.912Z,21.02
2022-08-24T02:43:59.803Z,21.00
2022-08-24T02:45:04.263Z,21.01
2022-08-24T02:46:17.963Z,21.10
2022-08-24T02:47:20.413Z,21.03
2022-08-24T02:48:22.704Z,21.06
2022-08-24T02:49:26.767Z,21.12
2022-08-24T02:50:29.225Z,21.11
2022-08-24T02:51:42.259Z,21.14
2022-08-24T02:52:47.844Z,21.19
2022-08-24T02:53:50.537Z,21.20
2022-08-24T02:54:52.848Z,21.21
2022-08-24T02:55:55.335Z,21.23
2022-08-24T02:56:57.691Z,21.29
2022-08-24T02:58:01.078Z,21.23
2022-08-24T02:59:03.986Z,21.19
2022-08-24T03:00:10.588Z,21.19
2022-08-24T03:01:23.940Z,21.22
2022-08-24T03:02:32.427Z,21.18
2022-08-24T03:03:34.757Z,21.10
2022-08-24T03:04:36.975Z,21.23
2022-08-24T03:05:39.924Z,21.28
2022-08-24T03:06:44.820Z,21.25
2022-08-24T03:07:47.249Z,21.31
2022-08-24T03:08:54.700Z,21.36
2022-08-24T03:09:59.074Z,21.42
2022-08-24T03:11:01.528Z,21.41
2022-08-24T03:12:04.178Z,21.47
2022-08-24T03:13:07.874Z,21.37
2022-08-24T03:14:10.459Z,21.38
2022-08-24T03:15:13.480Z,21.36
2022-08-24T03:16:19.095Z,21.41
2022-08-24T03:17:21.476Z,21.37
2022-08-24T03:18:26.024Z,21.39
2022-08-24T03:19:28.695Z,21.52
2022-08-24T03:20:31.287Z,21.49
2022-08-24T03:21:33.854Z,21.51
2022-08-24T03:22:36.136Z,21.52
2022-08-24T03:23:38.176Z,21.52
2022-08-24T03:24:40.251Z,21.63
2022-08-24T03:25:42.375Z,21.63
2022-08-24T03:26:44.802Z,21.69
2022-08-24T03:27:48.178Z,21.67
2022-08-24T03:28:50.963Z,21.73
2022-08-24T03:29:54.180Z,21.75
2022-08-24T03:30:56.860Z,21.75
2022-08-24T03:31:59.724Z,21.86
2022-08-24T03:33:02.259Z,21.88
2022-08-24T03:34:05.246Z,21.96
2022-08-24T03:35:08.288Z,22.02
2022-08-24T03:36:14.103Z,22.06
2022-08-24T03:37:16.966Z,22.14
2022-08-24T03:38:19.778Z,22.22
2022-08-24T03:39:21.936Z,22.19
2022-08-24T03:40:28.630Z,22.21
2022-08-24T03:41:32.319Z,22.30
2022-08-24T03:42:39.826Z,22.37
2022-08-24T03:43:49.174Z,22.39
2022-08-24T03:44:53.765Z,22.42
2022-08-24T03:45:55.970Z,22.47
2022-08-24T03:47:03.961Z,22.55
2022-08-24T03:48:06.649Z,22.58
2022-08-24T03:49:10.528Z,22.60
2022-08-24T03:50:14.003Z,22.66
2022-08-24T03:51:20.138Z,22.71
2022-08-24T03:52:24.737Z,22.70
2022-08-24T03:53:28.286Z,22.78
2022-08-24T03:54:33.986Z,22.82
2022-08-24T03:55:36.619Z,22.82
2022-08-24T03:56:39.508Z,22.98
2022-08-24T03:57:41.604Z,23.08
2022-08-24T03:58:44.443Z,23.05
2022-08-24T03:59:47.474Z,23.16
2022-08-24T04:00:50.284Z,23.19
2022-08-24T04:01:56.656Z,23.28
2022-08-24T04:03:00.622Z,23.85
2022-08-24T04:04:05.479Z,24.98
2022-08-24T04:05:12.496Z,25.96
2022-08-24T04:06:18.383Z,26.26
2022-08-24T04:07:28.014Z,27.07
2022-08-24T04:08:32.678Z,27.64
2022-08-24T04:09:35.347Z,28.39
2022-08-24T04:10:38.550Z,28.84
2022-08-24T04:11:41.636Z,29.38
2022-08-24T04:12:45.153Z,29.28
2022-08-24T04:13:52.500Z,29.75
2022-08-24T04:14:57.856Z,30.19
2022-08-24T04:16:07.226Z,30.60
2022-08-24T04:17:14.439Z,31.18
2022-08-24T04:18:20.161Z,31.47
2022-08-24T04:19:22.932Z,32.32
2022-08-24T04:20:26.296Z,32.03
2022-08-24T04:21:31.578Z,32.63
2022-08-24T04:22:38.050Z,32.26
2022-08-24T04:23:47.206Z,32.54
2022-08-24T04:24:52.314Z,32.78
2022-08-24T04:26:04.454Z,33.37
2022-08-24T04:27:06.815Z,33.39
2022-08-24T04:28:09.483Z,34.35
2022-08-24T04:29:17.741Z,33.81
2022-08-24T04:30:28.984Z,34.54
2022-08-24T04:31:40.658Z,34.74
2022-08-24T04:32:43.221Z,35.22
2022-08-24T04:33:49.909Z,35.63
2022-08-24T04:34:58.261Z,35.38
2022-08-24T04:36:02.821Z,35.69
2022-08-24T04:37:11.331Z,36.24
2022-08-24T04:38:16.442Z,36.47
2022-08-24T04:39:28.542Z,35.95
2022-08-24T04:41:00.202Z,36.21
2022-08-24T04:42:03.732Z,36.10
2022-08-24T04:43:11.736Z,36.81
2022-08-24T04:44:14.676Z,35.89
2022-08-24T04:45:16.903Z,36.16
2022-08-24T04:46:20.220Z,36.30
2022-08-24T04:47:23.023Z,36.78
2022-08-24T04:48:25.330Z,36.51
2022-08-24T04:49:27.751Z,37.59
2022-08-24T04:50:31.088Z,37.33
2022-08-24T04:51:36.570Z,37.86
2022-08-24T04:52:39.847Z,37.91
2022-08-24T04:53:42.829Z,37.53
2022-08-24T04:54:45.578Z,37.08
2022-08-24T04:55:55.658Z,37.48
2022-08-24T04:56:59.851Z,37.75
2022-08-24T04:58:02.035Z,37.48
2022-08-24T04:59:06.009Z,37.50
2022-08-24T05:00:35.557Z,38.92
2022-08-24T05:01:48.635Z,38.99
2022-08-24T05:02:55.635Z,38.00
2022-08-24T05:03:59.647Z,36.46
2022-08-24T05:05:03.932Z,36.92
2022-08-24T05:06:15.278Z,36.54
2022-08-24T05:07:18.629Z,36.55
2022-08-24T05:08:21.203Z,36.12
2022-08-24T05:09:24.256Z,36.02
2022-08-24T05:10:33.826Z,36.09
2022-08-24T05:11:42.539Z,36.75
2022-08-24T05:12:55.294Z,37.10
2022-08-24T05:13:59.748Z,38.60
2022-08-24T05:15:03.552Z,38.33
2022-08-24T05:16:24.479Z,37.44
2022-08-24T05:17:31.577Z,36.71
2022-08-24T05:18:35.458Z,37.47
2022-08-24T05:19:39.602Z,37.13
2022-08-24T05:20:47.142Z,35.91
2022-08-24T05:21:50.492Z,37.48
2022-08-24T05:22:56.315Z,36.43
2022-08-24T05:24:01.009Z,37.53
2022-08-24T05:25:07.357Z,36.60
2022-08-24T05:26:16.634Z,37.48
2022-08-24T05:27:19.771Z,37.03
2022-08-24T05:28:27.432Z,37.13
2022-08-24T05:29:36.014Z,37.20
2022-08-24T05:30:42.679Z,37.75
2022-08-24T05:31:46.509Z,37.85
2022-08-24T05:32:49.897Z,36.90
2022-08-24T05:33:53.482Z,38.57
2022-08-24T05:34:56.259Z,38.09
2022-08-24T05:35:59.137Z,38.65
2022-08-24T05:37:01.360Z,37.77
2022-08-24T05:38:23.882Z,38.95
2022-08-24T05:39:26.526Z,39.37
2022-08-24T05:40:33.394Z,38.63
2022-08-24T05:41:46.849Z,39.13
2022-08-24T05:42:57.415Z,39.64
2022-08-24T05:43:59.632Z,40.21
2022-08-24T05:45:17.021Z,40.78
2022-08-24T05:46:21.078Z,41.11
2022-08-24T05:47:23.451Z,41.42
2022-08-24T05:48:27.441Z,40.52
2022-08-24T05:49:53.865Z,41.01
2022-08-24T05:50:57.470Z,41.83
2022-08-24T05:52:04.236Z,41.67
2022-08-24T05:53:06.617Z,41.37
2022-08-24T05:54:11.545Z,41.42
2022-08-24T05:55:42.522Z,41.26
2022-08-24T05:56:45.764Z,41.40
2022-08-24T05:57:47.854Z,41.08
2022-08-24T05:58:56.252Z,41.49
2022-08-24T05:59:58.523Z,41.55
2022-08-24T06:01:10.666Z,42.52
2022-08-24T06:02:13.492Z,42.17
2022-08-24T06:03:17.235Z,41.68
2022-08-24T06:04:25.190Z,41.03
2022-08-24T06:05:28.563Z,41.25
2022-08-24T06:06:32.496Z,41.68
2022-08-24T06:07:34.674Z,41.03
2022-08-24T06:08:41.454Z,41.67
2022-08-24T06:09:45.939Z,41.75
2022-08-24T06:10:48.299Z,41.83
2022-08-24T06:11:50.892Z,41.82
2022-08-24T06:12:53.823Z,42.42
2022-08-24T06:14:00.290Z,41.78
2022-08-24T06:15:06.248Z,42.09
2022-08-24T06:16:21.273Z,41.95
2022-08-24T06:17:25.098Z,41.24
2022-08-24T06:18:27.443Z,42.14
2022-08-24T06:19:30.283Z,41.87
2022-08-24T06:20:39.238Z,42.06
2022-08-24T06:21:42.239Z,41.94
2022-08-24T06:22:44.699Z,42.04
2022-08-24T06:23:47.335Z,41.92
2022-08-24T06:25:08.246Z,41.88
2022-08-24T06:26:31.514Z,42.45
2022-08-24T06:27:34.346Z,42.32
2022-08-24T06:28:39.872Z,42.92
2022-08-24T06:29:41.945Z,42.40
2022-08-24T06:31:07.815Z,42.01
2022-08-24T06:32:11.876Z,42.25
2022-08-24T06:33:13.972Z,41.97
2022-08-24T06:34:19.609Z,41.92
2022-08-24T06:35:23.335Z,41.99
2022-08-24T06:36:25.936Z,41.50
2022-08-24T06:37:29.448Z,42.11
2022-08-24T06:38:32.436Z,41.96
2022-08-24T06:39:35.144Z,42.32
2022-08-24T06:40:38.093Z,42.67
2022-08-24T06:41:41.532Z,41.82
2022-08-24T06:42:47.540Z,41.01
2022-08-24T06:43:59.332Z,42.05
2022-08-24T06:45:18.032Z,42.56
2022-08-24T06:46:24.954Z,41.57
2022-08-24T06:47:29.200Z,42.13
2022-08-24T06:48:35.520Z,42.41
2022-08-24T06:49:38.922Z,41.75
2022-08-24T06:50:41.160Z,41.89
2022-08-24T06:51:45.473Z,42.94
2022-08-24T06:52:50.827Z,42.20
2022-08-24T06:53:56.263Z,42.03
2022-08-24T06:54:59.305Z,42.18
2022-08-24T06:56:01.573Z,41.93
2022-08-24T06:57:10.406Z,42.19
2022-08-24T06:58:14.811Z,42.51
2022-08-24T06:59:17.060Z,41.68
2022-08-24T07:00:19.925Z,42.44
2022-08-24T07:01:27.624Z,42.52
2022-08-24T07:02:34.153Z,41.48
2022-08-24T07:03:36.382Z,41.95
2022-08-24T07:04:54.560Z,42.57
2022-08-24T07:06:15.728Z,42.64
2022-08-24T07:07:18.640Z,42.23
2022-08-24T07:08:21.637Z,41.96
2022-08-24T07:09:27.544Z,41.77
2022-08-24T07:10:30.667Z,41.60
2022-08-24T07:11:35.221Z,41.94
2022-08-24T07:12:37.674Z,42.43
2022-08-24T07:13:40.083Z,41.89
2022-08-24T07:14:43.466Z,42.78
2022-08-24T07:15:46.236Z,43.17
2022-08-24T07:16:49.371Z,42.34
2022-08-24T07:17:54.728Z,42.65
2022-08-24T07:18:58.387Z,42.75
2022-08-24T07:20:02.587Z,43.40
2022-08-24T07:21:23.710Z,42.27
2022-08-24T07:22:27.127Z,41.69
2022-08-24T07:23:41.216Z,42.54
2022-08-24T07:24:48.961Z,42.82
2022-08-24T07:25:56.097Z,42.62
2022-08-24T07:27:01.360Z,42.33
2022-08-24T07:28:09.386Z,41.74
2022-08-24T07:29:45.942Z,41.29
2022-08-24T07:30:42.711Z,41.37
2022-08-24T07:31:46.303Z,41.66
2022-08-24T07:33:09.396Z,42.07
2022-08-24T07:34:13.387Z,42.40
2022-08-24T07:35:18.494Z,41.89
2022-08-24T07:36:22.478Z,41.99
2022-08-24T07:37:40.748Z,41.97
2022-08-24T07:38:43.827Z,42.42
2022-08-24T07:39:46.479Z,42.83
2022-08-24T07:41:14.730Z,41.82
2022-08-24T07:42:25.360Z,42.06
2022-08-24T07:43:32.923Z,42.09
2022-08-24T07:44:36.036Z,41.27
2022-08-24T07:45:42.384Z,41.95
2022-08-24T07:46:45.522Z,41.82
2022-08-24T07:47:55.392Z,41.54
2022-08-24T07:49:33.052Z,41.86
2022-08-24T07:50:40.113Z,40.84
2022-08-24T07:51:46.704Z,41.37
2022-08-24T07:52:49.465Z,41.85
2022-08-24T07:53:53.819Z,41.54
2022-08-24T07:55:02.546Z,41.36
2022-08-24T07:56:06.024Z,42.28
2022-08-24T07:57:12.285Z,40.53
2022-08-24T07:58:14.440Z,40.30
2022-08-24T07:59:18.428Z,40.70
2022-08-24T08:00:22.398Z,40.64
2022-08-24T08:01:33.803Z,40.64
2022-08-24T08:02:38.042Z,40.44
2022-08-24T08:03:40.778Z,40.40
2022-08-24T08:04:43.396Z,40.43
2022-08-24T08:05:49.728Z,40.89
2022-08-24T08:07:59.211Z,40.48
2022-08-24T08:09:05.522Z,40.74
2022-08-24T08:10:09.446Z,40.42
2022-08-24T08:11:13.782Z,40.44
2022-08-24T08:12:16.472Z,40.37
2022-08-24T08:13:29.827Z,40.59
2022-08-24T08:14:32.728Z,40.69
2022-08-24T08:15:37.538Z,41.36
2022-08-24T08:16:43.242Z,39.94
2022-08-24T08:17:46.391Z,40.68
2022-08-24T08:19:11.297Z,40.24
2022-08-24T08:20:18.797Z,40.44
2022-08-24T08:21:40.469Z,40.27
2022-08-24T08:23:02.806Z,40.45
2022-08-24T08:24:16.937Z,39.60
2022-08-24T08:25:27.542Z,39.08
2022-08-24T08:26:29.897Z,39.84
2022-08-24T08:27:41.011Z,40.12
2022-08-24T08:28:44.098Z,39.08
2022-08-24T08:29:46.230Z,39.02
2022-08-24T08:30:49.524Z,39.87
2022-08-24T08:31:52.424Z,39.44
2022-08-24T08:32:55.395Z,39.51
2022-08-24T08:33:57.724Z,39.60
2022-08-24T08:35:02.408Z,39.73
2022-08-24T08:36:10.958Z,39.47
2022-08-24T08:37:19.935Z,40.05
2022-08-24T08:38:22.647Z,38.98
2022-08-24T08:39:26.430Z,39.62
2022-08-24T08:41:00.493Z,39.27
2022-08-24T08:42:21.530Z,39.47
2022-08-24T08:43:38.547Z,39.54
2022-08-24T08:44:49.963Z,39.56
2022-08-24T08:46:07.897Z,39.14
2022-08-24T08:47:50.098Z,38.50
2022-08-24T08:49:20.506Z,38.75
2022-08-24T08:50:32.293Z,38.69
2022-08-24T08:51:49.663Z,38.02
2022-08-24T08:53:15.795Z,38.15
2022-08-24T08:54:22.651Z,37.72
2022-08-24T08:55:40.064Z,38.35
2022-08-24T08:57:05.580Z,38.49
2022-08-24T08:58:43.671Z,38.46
2022-08-24T09:00:33.166Z,38.57
2022-08-24T09:02:07.580Z,38.24
2022-08-24T09:03:39.679Z,37.88
2022-08-24T09:05:00.477Z,37.43
2022-08-24T09:06:23.817Z,37.20
2022-08-24T09:07:55.002Z,37.82
2022-08-24T09:09:22.338Z,37.88
2022-08-24T09:10:27.584Z,37.32
2022-08-24T09:11:56.716Z,37.66
2022-08-24T09:13:12.791Z,37.20
2022-08-24T09:15:02.856Z,36.35
2022-08-24T09:16:41.508Z,36.58
2022-08-24T09:17:53.182Z,36.51
2022-08-24T09:19:13.821Z,36.61
2022-08-24T09:20:57.850Z,36.83
2022-08-24T09:22:17.242Z,36.65
2022-08-24T09:23:44.467Z,36.89
2022-08-24T09:24:52.751Z,36.20
2022-08-24T09:26:30.084Z,35.75
2022-08-24T09:27:51.400Z,36.17
2022-08-24T09:29:13.720Z,35.86
2022-08-24T09:30:21.215Z,35.80
2022-08-24T09:31:29.317Z,35.71
2022-08-24T09:32:51.114Z,35.41
2022-08-24T09:34:27.064Z,35.33
2022-08-24T09:35:54.065Z,35.00
2022-08-24T09:37:05.195Z,35.05
2022-08-24T09:38:39.915Z,35.08
2022-08-24T09:40:00.276Z,34.94
2022-08-24T09:41:19.115Z,34.48
2022-08-24T09:42:26.937Z,34.46
2022-08-24T09:43:54.064Z,34.28
2022-08-24T09:45:25.152Z,34.37
2022-08-24T09:47:04.933Z,34.21
2022-08-24T09:48:25.074Z,34.50
2022-08-24T09:50:00.779Z,34.39
2022-08-24T09:51:37.289Z,34.02
2022-08-24T09:53:06.275Z,34.29
2022-08-24T09:54:19.289Z,34.03
2022-08-24T09:55:59.794Z,33.76
2022-08-24T09:57:44.325Z,33.72
2022-08-24T09:59:20.330Z,33.76
2022-08-24T10:00:26.967Z,33.38
2022-08-24T10:01:32.848Z,33.28
2022-08-24T10:02:41.547Z,33.47
2022-08-24T10:03:44.358Z,33.42
2022-08-24T10:04:57.709Z,33.45
2022-08-24T10:06:09.411Z,33.39
2022-08-24T10:07:43.265Z,33.17
2022-08-24T10:09:19.293Z,32.87
2022-08-24T10:10:41.431Z,32.99
2022-08-24T10:11:56.347Z,33.10
2022-08-24T10:13:04.647Z,33.14
2022-08-24T10:14:13.410Z,33.25
2022-08-24T10:15:22.637Z,32.98
2022-08-24T10:17:06.286Z,32.92
2022-08-24T10:18:32.281Z,32.84
2022-08-24T10:19:46.340Z,32.83
2022-08-24T10:21:03.218Z,32.72
2022-08-24T10:22:20.810Z,32.77
2022-08-24T10:23:23.003Z,32.82
2022-08-24T10:24:40.114Z,32.72
2022-08-24T10:26:08.184Z,32.73
2022-08-24T10:27:22.608Z,32.72
2022-08-24T10:28:44.997Z,32.67
2022-08-24T10:30:25.992Z,32.56
2022-08-24T10:31:39.346Z,32.62
2022-08-24T10:33:00.298Z,32.58
2022-08-24T10:34:23.255Z,32.45
2022-08-24T10:35:35.317Z,32.27
2022-08-24T10:37:18.003Z,32.15
2022-08-24T10:38:53.635Z,32.25
2022-08-24T10:40:28.637Z,32.19
2022-08-24T10:41:55.477Z,32.07
2022-08-24T10:43:34.389Z,32.04
2022-08-24T10:44:50.191Z,31.94
2022-08-24T10:46:10.378Z,31.99
2022-08-24T10:47:36.933Z,32.12
2022-08-24T10:49:18.613Z,32.10
2022-08-24T10:50:31.018Z,32.18
2022-08-24T10:51:40.611Z,32.04
2022-08-24T10:52:49.028Z,31.96
2022-08-24T10:53:54.073Z,32.00
2022-08-24T10:54:56.686Z,32.05
2022-08-24T10:56:05.768Z,32.08
2022-08-24T10:57:23.052Z,31.99
2022-08-24T10:58:45.788Z,31.85
2022-08-24T11:00:22.555Z,31.90
2022-08-24T11:01:35.197Z,31.96
2022-08-24T11:02:39.639Z,32.00
2022-08-24T11:03:58.970Z,32.05
2022-08-24T11:05:10.406Z,32.15
2022-08-24T11:06:17.767Z,32.15
2022-08-24T11:07:22.213Z,32.19
2022-08-24T11:08:29.603Z,32.27
2022-08-24T11:09:45.355Z,32.32
2022-08-24T11:11:07.566Z,32.01
2022-08-24T11:12:38.611Z,31.87
2022-08-24T11:13:54.461Z,31.88
2022-08-24T11:15:00.680Z,31.88
2022-08-24T11:16:04.311Z,31.94
2022-08-24T11:17:24.517Z,31.98
2022-08-24T11:18:27.313Z,31.88
2022-08-24T11:19:35.478Z,31.95
2022-08-24T11:20:43.405Z,31.92
2022-08-24T11:21:49.658Z,31.73
2022-08-24T11:23:07.052Z,31.75
2022-08-24T11:24:28.309Z,31.77
2022-08-24T11:25:33.277Z,31.83
2022-08-24T11:27:02.857Z,31.85
2022-08-24T11:28:29.700Z,31.78
2022-08-24T11:29:50.088Z,31.79
2022-08-24T11:30:52.133Z,31.84
2022-08-24T11:31:54.397Z,31.89
2022-08-24T11:32:59.845Z,32.00
2022-08-24T11:34:10.861Z,32.00
2022-08-24T11:35:18.814Z,32.01
2022-08-24T11:36:26.138Z,32.01
2022-08-24T11:37:39.883Z,31.89
2022-08-24T11:38:45.681Z,31.94
2022-08-24T11:39:48.109Z,31.90
2022-08-24T11:40:52.628Z,31.86
2022-08-24T11:42:33.081Z,31.88
2022-08-24T11:43:49.866Z,31.92
2022-08-24T11:45:32.462Z,32.00
2022-08-24T11:46:34.711Z,31.97
2022-08-24T11:48:00.145Z,31.77
2022-08-24T11:49:13.688Z,31.77
2022-08-24T11:50:36.207Z,31.70
2022-08-24T11:51:55.494Z,31.79
2022-08-24T11:53:12.939Z,31.80
2022-08-24T11:54:27.403Z,31.86
2022-08-24T11:55:46.708Z,31.85
2022-08-24T11:57:15.269Z,31.78
2022-08-24T11:58:17.548Z,31.77
2022-08-24T11:59:29.115Z,31.71
2022-08-24T12:00:47.460Z,31.71
2022-08-24T12:01:57.794Z,31.68
2022-08-24T12:03:12.437Z,31.71
2022-08-24T12:04:21.001Z,31.72
2022-08-24T12:05:40.778Z,31.73
2022-08-24T12:07:13.748Z,31.73
2022-08-24T12:08:27.959Z,31.79
2022-08-24T12:09:47.376Z,31.80
2022-08-24T12:11:23.809Z,31.75
2022-08-24T12:12:46.655Z,31.75
2022-08-24T12:13:53.216Z,31.69
2022-08-24T12:15:12.378Z,31.76
2022-08-24T12:16:35.918Z,31.81
2022-08-24T12:17:56.237Z,31.75
2022-08-24T12:19:02.967Z,31.75
2022-08-24T12:20:27.657Z,31.70
2022-08-24T12:21:32.892Z,31.78
2022-08-24T12:22:36.454Z,31.78
2022-08-24T12:23:43.991Z,31.81
2022-08-24T12:24:49.686Z,31.88
2022-08-24T12:26:02.664Z,31.88
2022-08-24T12:27:18.429Z,31.80
2022-08-24T12:28:29.669Z,31.77
2022-08-24T12:29:40.995Z,31.68
2022-08-24T12:30:43.541Z,31.63
2022-08-24T12:32:11.635Z,31.68
2022-08-24T12:33:14.498Z,31.69
2022-08-24T12:34:49.719Z,31.73
2022-08-24T12:35:59.006Z,31.78
2022-08-24T12:37:16.033Z,31.79
2022-08-24T12:38:36.033Z,31.76
2022-08-24T12:40:03.116Z,31.68
2022-08-24T12:41:33.521Z,31.64
2022-08-24T12:43:01.213Z,31.62
2022-08-24T12:44:13.228Z,31.62
2022-08-24T12:45:17.646Z,31.57
2022-08-24T12:46:27.199Z,31.57
2022-08-24T12:47:37.038Z,31.62
2022-08-24T12:49:28.017Z,31.68
2022-08-24T12:50:54.535Z,31.53
2022-08-24T12:52:24.263Z,31.54
2022-08-24T12:53:42.231Z,31.61
2022-08-24T12:55:06.255Z,31.61
2022-08-24T12:56:20.509Z,31.69
2022-08-24T12:57:51.851Z,31.67
2022-08-24T12:59:17.526Z,31.65
2022-08-24T13:00:27.308Z,31.52
2022-08-24T13:01:34.179Z,31.48
2022-08-24T13:02:45.127Z,31.46
2022-08-24T13:04:07.224Z,31.43
2022-08-24T13:05:15.674Z,31.44
2022-08-24T13:06:38.430Z,31.45
2022-08-24T13:07:46.835Z,31.44
2022-08-24T13:08:51.514Z,31.39
2022-08-24T13:09:53.550Z,31.41
2022-08-24T13:11:06.276Z,31.37
2022-08-24T13:12:42.095Z,31.35
2022-08-24T13:13:59.436Z,31.30
2022-08-24T13:15:23.682Z,31.26
2022-08-24T13:17:03.970Z,31.21
2022-08-24T13:18:09.716Z,31.20
2022-08-24T13:19:15.465Z,31.21
2022-08-24T13:20:26.104Z,31.25
2022-08-24T13:21:39.319Z,31.22
2022-08-24T13:23:00.222Z,31.25
2022-08-24T13:24:30.663Z,31.25
2022-08-24T13:25:49.948Z,31.20
2022-08-24T13:26:56.673Z,31.19
2022-08-24T13:28:12.393Z,31.17
2022-08-24T13:29:16.747Z,31.18
2022-08-24T13:30:23.791Z,31.18
2022-08-24T13:31:43.675Z,31.15
2022-08-24T13:33:00.971Z,31.11
2022-08-24T13:34:06.385Z,31.12
2022-08-24T13:35:30.917Z,31.14
2022-08-24T13:37:08.815Z,31.13
2022-08-24T13:38:25.086Z,31.14
2022-08-24T13:39:41.856Z,31.19
2022-08-24T13:40:52.836Z,31.19
2022-08-24T13:42:29.922Z,31.16
2022-08-24T13:43:59.743Z,31.13
2022-08-24T13:45:23.165Z,31.13
2022-08-24T13:47:11.980Z,31.11
2022-08-24T13:48:42.768Z,31.06
2022-08-24T13:50:03.254Z,31.03
2022-08-24T13:51:35.761Z,31.00
2022-08-24T13:53:19.616Z,31.00
2022-08-24T13:54:42.235Z,30.98
2022-08-24T13:56:09.966Z,31.00
2022-08-24T13:57:22.227Z,31.00
2022-08-24T13:58:47.319Z,31.00
2022-08-24T14:00:27.019Z,31.01
2022-08-24T14:02:16.453Z,31.02
2022-08-24T14:03:37.150Z,31.01
2022-08-24T14:05:07.043Z,31.04
2022-08-24T14:06:41.292Z,31.02
2022-08-24T14:08:14.118Z,31.02
2022-08-24T14:09:39.605Z,31.04
2022-08-24T14:11:15.184Z,31.04
2022-08-24T14:12:34.956Z,31.04
2022-08-24T14:13:36.974Z,31.05
2022-08-24T14:14:57.050Z,31.08
2022-08-24T14:16:33.004Z,31.02
2022-08-24T14:17:55.494Z,31.05
2022-08-24T14:19:19.505Z,31.04
2022-08-24T14:20:58.773Z,31.00
2022-08-24T14:22:30.273Z,30.98
2022-08-24T14:23:47.923Z,30.97
2022-08-24T14:25:12.150Z,30.89
2022-08-24T14:26:42.184Z,30.89
2022-08-24T14:27:47.713Z,30.88
2022-08-24T14:28:50.532Z,30.85
2022-08-24T14:29:53.336Z,30.86
2022-08-24T14:31:28.676Z,30.82
2022-08-24T14:32:31.310Z,30.79
2022-08-24T14:33:44.622Z,30.81
2022-08-24T14:35:14.747Z,30.81
2022-08-24T14:36:42.260Z,30.76
2022-08-24T14:38:01.823Z,30.78
2022-08-24T14:39:13.601Z,30.74
2022-08-24T14:40:34.864Z,30.74
2022-08-24T14:41:54.612Z,30.75
2022-08-24T14:42:58.335Z,30.73
2022-08-24T14:44:17.672Z,30.71
2022-08-24T14:45:53.218Z,30.73
2022-08-24T14:47:14.393Z,30.72
2022-08-24T14:48:36.506Z,30.70
2022-08-24T14:50:17.442Z,30.68
2022-08-24T14:51:46.231Z,30.68
2022-08-24T14:53:21.928Z,30.69
2022-08-24T14:54:39.121Z,30.68
2022-08-24T14:56:08.295Z,30.69
2022-08-24T14:57:56.886Z,30.67
2022-08-24T14:59:11.991Z,30.63
2022-08-24T15:00:14.429Z,30.61
2022-08-24T15:01:19.254Z,30.62
2022-08-24T15:02:37.630Z,30.61
2022-08-24T15:04:12.366Z,30.61
2022-08-24T15:05:23.643Z,30.61
2022-08-24T15:06:37.112Z,30.59
2022-08-24T15:07:39.399Z,30.56
2022-08-24T15:08:43.465Z,30.55
2022-08-24T15:09:46.637Z,30.56
2022-08-24T15:10:59.753Z,30.54
2022-08-24T15:12:30.975Z,30.56
2022-08-24T15:13:54.250Z,30.55
2022-08-24T15:15:07.423Z,30.52
2022-08-24T15:16:14.872Z,30.52
2022-08-24T15:17:22.083Z,30.54
2022-08-24T15:18:36.851Z,30.52
2022-08-24T15:20:03.671Z,30.49
2022-08-24T15:21:22.442Z,30.45